Time,TemperatureF,DewpointF,PressureIn,WindDirection,WindDirectionDegrees,WindSpeedMPH,WindSpeedGustMPH,Humidity,HourlyPrecipIn,Conditions,Clouds,dailyrainin,SoftwareType,DateUTC
2013-04-15 00:02:00,34.0,34.0,29.61,East,101,2.0,6.0,98,0.09,,,0.13,,2013-04-15 05:02:00,
2013-04-15 00:12:00,34.0,34.0,29.61,East,101,2.0,6.0,98,0.09,,,0.13,,2013-04-15 05:12:00,
2013-04-15 00:23:00,34.0,34.0,29.60,ESE,103,4.0,7.0,98,0.11,,,0.15,,2013-04-15 05:23:00,
2013-04-15 00:32:00,34.0,34.0,29.60,East,99,3.0,6.0,98,0.11,,,0.15,,2013-04-15 05:32:00,
2013-04-15 00:42:00,34.0,34.0,29.60,East,99,3.0,6.0,98,0.11,,,0.15,,2013-04-15 05:42:00,
2013-04-15 00:53:00,34.0,34.0,29.60,East,101,1.0,3.0,98,0.07,,,0.15,,2013-04-15 05:53:00,
2013-04-15 01:02:00,34.0,34.0,29.57,ENE,65,3.0,5.0,98,0.01,,,0.15,,2013-04-15 06:02:00,
2013-04-15 01:12:00,34.0,34.0,29.57,ENE,65,3.0,5.0,98,0.01,,,0.15,,2013-04-15 06:12:00,
2013-04-15 01:22:00,34.0,34.0,29.57,East,87,2.0,7.0,98,0.00,,,0.15,,2013-04-15 06:22:00,
2013-04-15 01:33:00,34.0,34.0,29.56,East,86,2.0,6.0,98,0.00,,,0.15,,2013-04-15 06:33:00,
2013-04-15 01:42:00,34.0,34.0,29.56,East,86,2.0,6.0,98,0.00,,,0.15,,2013-04-15 06:42:00,
2013-04-15 01:52:00,34.0,34.0,29.54,East,79,5.0,10.0,98,0.00,,,0.15,,2013-04-15 06:52:00,
2013-04-15 02:02:00,35.0,34.0,29.54,ENE,63,4.0,8.0,98,0.00,,,0.15,,2013-04-15 07:02:00,
2013-04-15 02:41:00,35.0,34.0,29.54,ESE,102,1.0,5.0,98,0.00,,,0.15,,2013-04-15 07:41:00,
2013-04-15 02:42:00,35.0,34.0,29.55,ESE,114,0.0,1.0,98,0.00,,,0.15,,2013-04-15 07:42:00,
2013-04-15 02:53:00,35.0,34.0,29.58,SSE,153,1.0,3.0,98,0.00,,,0.15,,2013-04-15 07:53:00,
2013-04-15 03:02:00,35.0,34.0,29.59,South,191,0.0,4.0,98,0.00,,,0.15,,2013-04-15 08:02:00,
2013-04-15 03:13:00,35.0,34.0,29.59,South,191,0.0,4.0,98,0.00,,,0.15,,2013-04-15 08:13:00,
2013-04-15 03:22:00,35.0,34.0,29.59,South,190,0.0,2.0,98,0.00,,,0.15,,2013-04-15 08:22:00,
2013-04-15 03:33:00,35.0,34.0,29.60,South,191,1.0,3.0,98,0.00,,,0.15,,2013-04-15 08:33:00,
2013-04-15 03:42:00,35.0,34.0,29.60,South,191,1.0,3.0,98,0.00,,,0.15,,2013-04-15 08:42:00,
2013-04-15 03:52:00,35.0,35.0,29.58,South,190,0.0,2.0,99,0.00,,,0.15,,2013-04-15 08:52:00,
2013-04-15 04:02:00,35.0,35.0,29.59,South,190,0.0,2.0,99,0.00,,,0.15,,2013-04-15 09:02:00,
2013-04-15 04:12:00,35.0,35.0,29.59,South,190,0.0,2.0,99,0.00,,,0.15,,2013-04-15 09:12:00,
2013-04-15 04:23:00,35.0,35.0,29.60,South,190,1.0,3.0,99,0.00,,,0.15,,2013-04-15 09:23:00,
2013-04-15 04:32:00,35.0,35.0,29.60,SSW,198,1.0,5.0,99,0.00,,,0.15,,2013-04-15 09:32:00,
2013-04-15 04:42:00,35.0,35.0,29.60,SSW,198,1.0,5.0,99,0.00,,,0.15,,2013-04-15 09:42:00,
2013-04-15 04:53:00,35.0,35.0,29.60,SSW,198,1.0,4.0,99,0.00,,,0.15,,2013-04-15 09:53:00,
2013-04-15 05:02:00,35.0,35.0,29.60,SSW,198,1.0,4.0,99,0.00,,,0.15,,2013-04-15 10:02:00,
2013-04-15 05:13:00,35.0,35.0,29.60,SSW,198,1.0,4.0,99,0.00,,,0.15,,2013-04-15 10:13:00,
2013-04-15 05:23:00,35.0,35.0,29.60,SSW,198,1.0,4.0,99,0.00,,,0.15,,2013-04-15 10:23:00,
2013-04-15 05:33:00,36.0,36.0,29.59,SSW,199,2.0,5.0,99,0.00,,,0.15,,2013-04-15 10:33:00,
2013-04-15 05:42:00,36.0,36.0,29.59,SSW,199,2.0,5.0,99,0.00,,,0.15,,2013-04-15 10:42:00,
2013-04-15 05:53:00,36.0,36.0,29.60,SSW,209,4.0,8.0,99,0.00,,,0.15,,2013-04-15 10:53:00,
2013-04-15 06:03:00,35.0,35.0,29.59,SSW,197,3.0,6.0,99,0.00,,,0.15,,2013-04-15 11:03:00,
2013-04-15 06:12:00,35.0,35.0,29.59,SSW,197,3.0,6.0,99,0.00,,,0.15,,2013-04-15 11:12:00,
2013-04-15 06:22:00,35.0,35.0,29.59,South,169,0.0,5.0,99,0.00,,,0.15,,2013-04-15 11:22:00,
2013-04-15 06:32:00,34.0,34.0,29.59,South,169,1.0,3.0,99,0.00,,,0.15,,2013-04-15 11:32:00,
2013-04-15 06:43:00,34.0,34.0,29.59,South,169,1.0,3.0,99,0.00,,,0.15,,2013-04-15 11:43:00,
2013-04-15 06:53:00,34.0,34.0,29.59,SE,144,0.0,2.0,99,0.00,,,0.15,,2013-04-15 11:53:00,
2013-04-15 07:04:00,34.0,34.0,29.59,SE,135,0.0,4.0,99,0.00,,,0.15,,2013-04-15 12:04:00,
2013-04-15 07:14:00,34.0,34.0,29.59,SE,135,0.0,4.0,99,0.00,,,0.15,,2013-04-15 12:14:00,
2013-04-15 07:23:00,34.0,34.0,29.60,SE,135,0.0,3.0,99,0.00,,,0.15,,2013-04-15 12:23:00,
2013-04-15 07:33:00,34.0,34.0,29.61,South,187,1.0,5.0,99,0.00,,,0.15,,2013-04-15 12:33:00,
2013-04-15 07:43:00,34.0,34.0,29.61,South,187,1.0,5.0,99,0.00,,,0.15,,2013-04-15 12:43:00,
2013-04-15 07:53:00,34.0,34.0,29.62,SSW,208,0.0,4.0,99,0.00,,,0.15,,2013-04-15 12:53:00,
2013-04-15 08:04:00,33.0,33.0,29.62,South,175,2.0,6.0,99,0.00,,,0.15,,2013-04-15 13:04:00,
2013-04-15 08:12:00,33.0,33.0,29.62,South,175,2.0,6.0,99,0.00,,,0.15,,2013-04-15 13:12:00,
2013-04-15 08:23:00,34.0,34.0,29.62,SSW,194,3.0,6.0,99,0.00,,,0.15,,2013-04-15 13:23:00,
2013-04-15 08:33:00,34.0,34.0,29.62,South,171,3.0,6.0,99,0.00,,,0.15,,2013-04-15 13:33:00,
2013-04-15 08:43:00,34.0,34.0,29.62,South,171,3.0,6.0,99,0.00,,,0.15,,2013-04-15 13:43:00,
2013-04-15 08:54:00,35.0,35.0,29.63,South,182,3.0,5.0,99,0.01,,,0.16,,2013-04-15 13:54:00,
2013-04-15 09:04:00,35.0,35.0,29.63,South,184,4.0,8.0,99,0.03,,,0.18,,2013-04-15 14:04:00,
2013-04-15 09:13:00,35.0,35.0,29.63,South,184,4.0,8.0,99,0.03,,,0.18,,2013-04-15 14:13:00,
2013-04-15 09:22:00,36.0,36.0,29.63,SSW,193,3.0,7.0,99,0.04,,,0.19,,2013-04-15 14:22:00,
2013-04-15 09:33:00,36.0,36.0,29.63,South,177,3.0,8.0,99,0.06,,,0.21,,2013-04-15 14:33:00,
2013-04-15 09:44:00,36.0,36.0,29.63,South,177,3.0,8.0,99,0.06,,,0.21,,2013-04-15 14:44:00,
2013-04-15 09:54:00,38.0,38.0,29.62,SE,139,2.0,11.0,99,0.07,,,0.23,,2013-04-15 14:54:00,
2013-04-15 10:03:00,39.0,39.0,29.62,South,186,3.0,9.0,99,0.08,,,0.26,,2013-04-15 15:03:00,
2013-04-15 10:13:00,39.0,39.0,29.62,South,186,3.0,9.0,99,0.08,,,0.26,,2013-04-15 15:13:00,
2013-04-15 10:23:00,39.0,38.0,29.62,SSW,197,4.0,7.0,97,0.08,,,0.28,,2013-04-15 15:23:00,
2013-04-15 10:35:00,40.0,38.0,29.62,SSW,198,5.0,9.0,92,0.10,,,0.31,,2013-04-15 15:35:00,
2013-04-15 10:43:00,40.0,38.0,29.62,SSW,198,5.0,9.0,92,0.10,,,0.31,,2013-04-15 15:43:00,
2013-04-15 10:54:00,42.0,39.0,29.63,South,179,5.0,12.0,88,0.09,,,0.33,,2013-04-15 15:54:00,
2013-04-15 11:04:00,43.0,36.0,29.64,South,190,7.0,17.0,76,0.09,,,0.35,,2013-04-15 16:04:00,
2013-04-15 11:13:00,43.0,36.0,29.64,South,190,7.0,17.0,76,0.09,,,0.35,,2013-04-15 16:13:00,
2013-04-15 11:24:00,43.0,35.0,29.64,SW,233,8.0,15.0,72,0.09,,,0.37,,2013-04-15 16:24:00,
2013-04-15 11:33:00,44.0,36.0,29.65,SW,235,4.0,12.0,72,0.07,,,0.38,,2013-04-15 16:33:00,
2013-04-15 11:44:00,44.0,36.0,29.65,SW,235,4.0,12.0,72,0.07,,,0.38,,2013-04-15 16:44:00,
2013-04-15 11:54:00,44.0,35.0,29.65,South,177,9.0,20.0,70,0.06,,,0.39,,2013-04-15 16:54:00,
2013-04-15 12:03:00,45.0,35.0,29.66,SSW,209,6.0,16.0,69,0.04,,,0.39,,2013-04-15 17:03:00,
2013-04-15 12:14:00,45.0,35.0,29.66,SSW,209,6.0,16.0,69,0.04,,,0.39,,2013-04-15 17:14:00,
2013-04-15 12:22:00,45.0,35.0,29.67,South,178,4.0,16.0,68,0.03,,,0.40,,2013-04-15 17:22:00,
2013-04-15 12:33:00,46.0,34.0,29.67,SW,224,9.0,19.0,62,0.02,,,0.40,,2013-04-15 17:33:00,
2013-04-15 12:43:00,46.0,34.0,29.67,SW,224,9.0,19.0,62,0.02,,,0.40,,2013-04-15 17:43:00,
2013-04-15 12:52:00,46.0,32.0,29.68,WSW,246,8.0,16.0,59,0.01,,,0.40,,2013-04-15 17:52:00,
2013-04-15 13:03:00,45.0,27.0,29.69,WSW,246,9.0,22.0,50,0.01,,,0.40,,2013-04-15 18:03:00,
2013-04-15 13:12:00,45.0,27.0,29.69,WSW,246,9.0,22.0,50,0.01,,,0.40,,2013-04-15 18:12:00,
2013-04-15 13:32:00,45.0,31.0,29.70,SW,233,5.0,16.0,57,0.00,,,0.40,,2013-04-15 18:32:00,
2013-04-15 13:42:00,45.0,31.0,29.70,SW,233,5.0,16.0,57,0.00,,,0.40,,2013-04-15 18:42:00,
2013-04-15 13:52:00,45.0,32.0,29.71,SSW,202,2.0,14.0,59,0.00,,,0.40,,2013-04-15 18:52:00,
2013-04-15 14:02:00,44.0,31.0,29.71,WSW,256,9.0,21.0,61,0.00,,,0.40,,2013-04-15 19:02:00,
2013-04-15 14:12:00,44.0,31.0,29.71,WSW,256,9.0,21.0,61,0.00,,,0.40,,2013-04-15 19:12:00,
2013-04-15 14:22:00,43.0,31.0,29.72,West,266,9.0,17.0,63,0.00,,,0.40,,2013-04-15 19:22:00,
2013-04-15 14:36:00,43.0,32.0,29.73,WSW,257,11.0,18.0,64,0.00,,,0.40,,2013-04-15 19:36:00,
2013-04-15 14:50:00,43.0,32.0,29.73,WSW,257,11.0,18.0,64,0.00,,,0.40,,2013-04-15 19:50:00,
2013-04-15 15:01:00,43.0,32.0,29.74,West,279,9.0,18.0,64,0.00,,,0.40,,2013-04-15 20:01:00,
2013-04-15 15:02:00,43.0,32.0,29.74,West,264,12.0,19.0,64,0.00,,,0.40,,2013-04-15 20:02:00,
2013-04-15 15:11:00,43.0,32.0,29.74,West,264,12.0,19.0,64,0.00,,,0.40,,2013-04-15 20:11:00,
2013-04-15 15:22:00,43.0,32.0,29.75,WSW,253,11.0,18.0,65,0.00,,,0.40,,2013-04-15 20:22:00,
2013-04-15 15:32:00,43.0,32.0,29.75,West,271,9.0,22.0,66,0.00,,,0.40,,2013-04-15 20:32:00,
2013-04-15 15:42:00,43.0,32.0,29.75,West,271,9.0,22.0,66,0.00,,,0.40,,2013-04-15 20:42:00,
2013-04-15 15:52:00,43.0,32.0,29.76,WSW,250,10.0,21.0,64,0.00,,,0.40,,2013-04-15 20:52:00,
2013-04-15 16:02:00,43.0,32.0,29.76,WNW,284,13.0,21.0,64,0.00,,,0.40,,2013-04-15 21:02:00,
2013-04-15 16:12:00,43.0,32.0,29.76,WNW,284,13.0,21.0,64,0.00,,,0.40,,2013-04-15 21:12:00,
2013-04-15 16:22:00,43.0,32.0,29.76,WSW,255,9.0,20.0,66,0.00,,,0.40,,2013-04-15 21:22:00,
2013-04-15 16:32:00,43.0,32.0,29.76,WSW,257,11.0,24.0,64,0.00,,,0.40,,2013-04-15 21:32:00,
2013-04-15 16:43:00,43.0,32.0,29.76,WSW,257,11.0,24.0,64,0.00,,,0.40,,2013-04-15 21:43:00,
2013-04-15 16:53:00,43.0,32.0,29.77,West,263,6.0,16.0,65,0.00,,,0.40,,2013-04-15 21:53:00,
2013-04-15 17:02:00,42.0,31.0,29.77,West,274,11.0,20.0,65,0.00,,,0.40,,2013-04-15 22:02:00,
2013-04-15 17:13:00,42.0,31.0,29.77,West,274,11.0,20.0,65,0.00,,,0.40,,2013-04-15 22:13:00,
2013-04-15 17:23:00,42.0,31.0,29.78,WSW,251,9.0,19.0,66,0.00,,,0.40,,2013-04-15 22:23:00,
2013-04-15 17:33:00,42.0,32.0,29.78,West,265,8.0,20.0,67,0.00,,,0.40,,2013-04-15 22:33:00,
2013-04-15 17:42:00,42.0,32.0,29.78,West,265,8.0,20.0,67,0.00,,,0.40,,2013-04-15 22:42:00,
2013-04-15 17:52:00,42.0,32.0,29.79,West,259,9.0,16.0,67,0.00,,,0.40,,2013-04-15 22:52:00,
2013-04-15 18:02:00,41.0,32.0,29.79,SW,217,5.0,12.0,69,0.00,,,0.40,,2013-04-15 23:02:00,
2013-04-15 18:12:00,41.0,32.0,29.79,SW,217,5.0,12.0,69,0.00,,,0.40,,2013-04-15 23:12:00,
2013-04-15 18:22:00,41.0,32.0,29.78,WNW,293,8.0,17.0,69,0.00,,,0.39,,2013-04-15 23:22:00,
2013-04-15 18:32:00,41.0,32.0,29.79,SW,220,7.0,13.0,70,0.00,,,0.39,,2013-04-15 23:32:00,
2013-04-15 18:42:00,41.0,32.0,29.79,SW,220,7.0,13.0,70,0.00,,,0.39,,2013-04-15 23:42:00,
2013-04-15 18:52:00,41.0,32.0,29.80,West,267,4.0,11.0,71,0.00,,,0.39,,2013-04-15 23:52:00,
2013-04-15 19:02:00,41.0,32.0,29.80,WNW,286,6.0,13.0,70,0.00,,,0.39,,2013-04-16 00:02:00,
2013-04-15 19:12:00,41.0,32.0,29.80,WNW,286,6.0,13.0,70,0.00,,,0.39,,2013-04-16 00:12:00,
2013-04-15 19:22:00,40.0,31.0,29.80,West,261,7.0,12.0,71,0.00,,,0.39,,2013-04-16 00:22:00,
2013-04-15 19:32:00,40.0,32.0,29.81,West,260,5.0,9.0,72,0.00,,,0.39,,2013-04-16 00:32:00,
2013-04-15 19:42:00,40.0,32.0,29.81,West,260,5.0,9.0,72,0.00,,,0.39,,2013-04-16 00:42:00,
2013-04-15 19:52:00,39.0,31.0,29.81,West,267,5.0,11.0,74,0.00,,,0.39,,2013-04-16 00:52:00,
2013-04-15 20:02:00,39.0,32.0,29.80,WSW,257,5.0,10.0,76,0.00,,,0.39,,2013-04-16 01:02:00,
2013-04-15 20:12:00,39.0,32.0,29.80,WSW,257,5.0,10.0,76,0.00,,,0.39,,2013-04-16 01:12:00,
2013-04-15 20:22:00,38.0,31.0,29.82,West,265,5.0,9.0,76,0.00,,,0.39,,2013-04-16 01:22:00,
2013-04-15 20:32:00,38.0,32.0,29.82,West,269,2.0,8.0,78,0.00,,,0.39,,2013-04-16 01:32:00,
2013-04-15 20:42:00,38.0,32.0,29.82,West,269,2.0,8.0,78,0.00,,,0.39,,2013-04-16 01:42:00,
2013-04-15 20:52:00,37.0,31.0,29.82,WNW,296,4.0,11.0,78,0.00,,,0.39,,2013-04-16 01:52:00,
2013-04-15 21:02:00,37.0,30.0,29.83,WNW,284,6.0,13.0,76,0.00,,,0.39,,2013-04-16 02:02:00,
2013-04-15 21:12:00,37.0,30.0,29.83,WNW,284,6.0,13.0,76,0.00,,,0.39,,2013-04-16 02:12:00,
2013-04-15 21:22:00,37.0,30.0,29.83,West,271,5.0,10.0,76,0.00,,,0.38,,2013-04-16 02:22:00,
2013-04-15 21:32:00,37.0,30.0,29.83,West,267,6.0,13.0,75,0.00,,,0.38,,2013-04-16 02:32:00,
2013-04-15 21:42:00,37.0,30.0,29.83,West,267,6.0,13.0,75,0.00,,,0.38,,2013-04-16 02:42:00,
2013-04-15 21:52:00,37.0,29.0,29.84,WSW,251,6.0,15.0,74,0.00,,,0.38,,2013-04-16 02:52:00,
2013-04-15 22:02:00,36.0,29.0,29.85,WNW,287,5.0,10.0,74,0.00,,,0.38,,2013-04-16 03:02:00,
2013-04-15 22:12:00,36.0,29.0,29.85,WNW,287,5.0,10.0,74,0.00,,,0.38,,2013-04-16 03:12:00,
2013-04-15 22:22:00,36.0,29.0,29.85,WSW,252,4.0,8.0,74,0.00,,,0.37,,2013-04-16 03:22:00,
2013-04-15 22:33:00,36.0,29.0,29.85,WNW,283,4.0,10.0,74,0.00,,,0.37,,2013-04-16 03:33:00,
2013-04-15 22:43:00,36.0,29.0,29.85,WNW,283,4.0,10.0,74,0.00,,,0.37,,2013-04-16 03:43:00,
2013-04-15 22:53:00,36.0,29.0,29.86,SW,227,3.0,11.0,75,0.00,,,0.37,,2013-04-16 03:53:00,
2013-04-15 23:03:00,35.0,29.0,29.87,WSW,253,2.0,7.0,77,0.00,,,0.37,,2013-04-16 04:03:00,
2013-04-15 23:12:00,35.0,29.0,29.87,WSW,253,2.0,7.0,77,0.00,,,0.37,,2013-04-16 04:12:00,
2013-04-15 23:23:00,35.0,29.0,29.87,West,261,3.0,8.0,78,0.00,,,0.36,,2013-04-16 04:23:00,
2013-04-15 23:33:00,35.0,29.0,29.87,West,260,1.0,9.0,78,0.00,,,0.36,,2013-04-16 04:33:00,
2013-04-15 23:42:00,35.0,29.0,29.87,West,260,1.0,9.0,78,0.00,,,0.36,,2013-04-16 04:42:00,
2013-04-15 23:53:00,35.0,29.0,29.87,West,262,1.0,6.0,79,0.00,,,0.36,,2013-04-16 04:53:00,